Northglenn, Colorado
Current Conditions -  °F | °C
As of 12:53 PM on Monday 26 Jan 2015 (Local Time) from KBJC Reporting Station
Clear Clear  
Wind Chill: 70°   Ceiling: Unl
Heat Index: 70°   Visibility: 50mi
Dew Point: 19°   Wind: 0mph
Humidity: 15%   Direction: NA
Pressure: 30.24"   Gusts: NA
Location:  39.91°N, 104.98°W
Report Text: KBJC 261953Z 00000KT 50SM SKC 21/M07 A3024
Loading
Personal Weather Stations






























Interactive Weather Map New forecast layout! Learn more

10-Day Weather Forecast

Advertisements
Track Severe Weather on mobile